createdAt,value
2018-05-14T00:04:29.334Z,100454
2018-05-14T00:09:34.237Z,100453
2018-05-14T00:14:38.444Z,100446
2018-05-14T00:19:42.533Z,100446
2018-05-14T00:24:49.488Z,100439
2018-05-14T00:29:54.752Z,100428
2018-05-14T00:34:58.775Z,100421
2018-05-14T00:40:03.468Z,100422
2018-05-14T00:45:07.353Z,100420
2018-05-14T00:50:12.171Z,100423
2018-05-14T00:55:18.517Z,100411
2018-05-14T01:05:39.531Z,100399
2018-05-14T01:10:49.558Z,100391
2018-05-14T01:15:55.643Z,100390
2018-05-14T01:21:01.154Z,100386
2018-05-14T01:26:04.434Z,100378
2018-05-14T01:31:08.905Z,100390
2018-05-14T01:36:14.517Z,100406
2018-05-14T01:41:23.268Z,100413
2018-05-14T01:46:30.068Z,100413
2018-05-14T01:51:34.715Z,100399
2018-05-14T01:56:38.369Z,100393
2018-05-14T02:01:46.308Z,100390
2018-05-14T02:06:54.579Z,100387
2018-05-14T02:11:59.346Z,100395
2018-05-14T02:17:03.965Z,100397
2018-05-14T02:22:10.111Z,100391
2018-05-14T02:32:34.116Z,100377
2018-05-14T02:37:51.762Z,100376
2018-05-14T02:48:19.739Z,100382
2018-05-14T02:53:24.975Z,100386
2018-05-14T02:58:29.110Z,100382
2018-05-14T03:03:35.298Z,100369
2018-05-14T03:14:08.693Z,100354
2018-05-14T03:19:22.361Z,100347
2018-05-14T03:24:33.966Z,100332
2018-05-14T03:29:48.556Z,100323
2018-05-14T03:34:56.050Z,100321
2018-05-14T03:40:12.071Z,100313
2018-05-14T03:50:55.103Z,100333
2018-05-14T03:56:11.589Z,100334
2018-05-14T04:01:42.859Z,100344
2018-05-14T04:12:57.979Z,100354
2018-05-14T04:18:39.997Z,100348
2018-05-14T04:23:53.700Z,100345
2018-05-14T04:34:32.811Z,100351
2018-05-14T04:45:04.728Z,100354
2018-05-14T04:50:38.686Z,100352
2018-05-14T05:01:34.472Z,100345
2018-05-14T05:12:43.782Z,100337
2018-05-14T05:17:47.300Z,100337
2018-05-14T05:22:50.473Z,100333
2018-05-14T05:27:54.640Z,100329
2018-05-14T05:32:57.762Z,100345
2018-05-14T05:38:01.148Z,100350
2018-05-14T05:43:04.958Z,100365
2018-05-14T05:48:09.401Z,100369
2018-05-14T05:53:14.051Z,100374
2018-05-14T05:58:17.229Z,100371
2018-05-14T06:03:21.085Z,100374
2018-05-14T06:08:25.407Z,100371
2018-05-14T06:13:29.834Z,100375
2018-05-14T06:18:33.318Z,100381
2018-05-14T06:23:36.801Z,100382
2018-05-14T06:28:39.893Z,100388
2018-05-14T06:33:42.987Z,100404
2018-05-14T06:38:46.862Z,100414
2018-05-14T06:43:49.964Z,100415
2018-05-14T06:48:53.855Z,100414
2018-05-14T06:53:56.953Z,100410
2018-05-14T06:59:01.498Z,100408
2018-05-14T07:04:06.103Z,100404
2018-05-14T07:09:10.705Z,100405
2018-05-14T07:14:14.203Z,100410
2018-05-14T07:19:18.182Z,100412
2018-05-14T07:24:21.150Z,100412
2018-05-14T07:29:24.251Z,100401
2018-05-14T07:34:27.361Z,100404
2018-05-14T07:39:31.237Z,100405
2018-05-14T07:44:34.351Z,100403
2018-05-14T07:49:38.781Z,100412
2018-05-14T07:54:42.286Z,100407
2018-05-14T07:59:46.169Z,100403
2018-05-14T08:04:50.397Z,100406
2018-05-14T08:09:54.339Z,100409
2018-05-14T08:14:58.349Z,100411
2018-05-14T08:20:01.528Z,100414
2018-05-14T08:25:04.667Z,100414
2018-05-14T08:30:08.900Z,100418
2018-05-14T08:35:12.773Z,100418
2018-05-14T08:40:17.213Z,100415
2018-05-14T08:45:21.834Z,100423
2018-05-14T08:50:25.331Z,100420
2018-05-14T08:55:29.201Z,100416
2018-05-14T09:00:32.289Z,100408
2018-05-14T09:05:35.383Z,100414
2018-05-14T09:10:39.236Z,100416
2018-05-14T09:15:43.453Z,100414
2018-05-14T09:20:46.561Z,100423
2018-05-14T09:25:50.054Z,100417
2018-05-14T09:30:53.156Z,100424
2018-05-14T09:35:57.038Z,100424
2018-05-14T09:41:00.906Z,100422
2018-05-14T09:46:04.790Z,100429
2018-05-14T09:51:10.204Z,100428
2018-05-14T09:56:13.326Z,100422
2018-05-14T10:01:16.475Z,100420
2018-05-14T10:06:19.603Z,100423
2018-05-14T10:11:22.707Z,100423
2018-05-14T10:16:26.847Z,100424
2018-05-14T10:21:30.714Z,100410
2018-05-14T10:26:35.591Z,100409
2018-05-14T10:31:38.750Z,100408
2018-05-14T10:36:43.199Z,100413
2018-05-14T10:41:46.290Z,100412
2018-05-14T10:46:49.471Z,100412
2018-05-14T10:51:53.606Z,100407
2018-05-14T10:56:58.213Z,100412
2018-05-14T11:02:01.294Z,100406
2018-05-14T11:07:04.770Z,100412
2018-05-14T11:12:07.891Z,100406
2018-05-14T11:17:10.979Z,100414
2018-05-14T11:22:15.586Z,100414
2018-05-14T11:27:18.688Z,100412
2018-05-14T11:32:21.781Z,100412
2018-05-14T11:37:24.888Z,100411
2018-05-14T11:42:28.747Z,100410
2018-05-14T11:47:34.352Z,100415
2018-05-14T11:52:37.457Z,100410
2018-05-14T11:57:40.672Z,100410
2018-05-14T12:02:44.223Z,100408
2018-05-14T12:07:48.413Z,100418
2018-05-14T12:12:52.266Z,100409
2018-05-14T12:17:56.853Z,100405
2018-05-14T12:22:59.939Z,100403
2018-05-14T12:28:03.418Z,100402
2018-05-14T12:33:06.907Z,100409
2018-05-14T12:38:09.985Z,100404
2018-05-14T12:43:14.440Z,100398
2018-05-14T12:48:17.542Z,100390
2018-05-14T12:53:21.408Z,100390
2018-05-14T12:58:24.893Z,100384
2018-05-14T13:03:27.982Z,100380
2018-05-14T13:08:31.833Z,100375
2018-05-14T13:13:35.702Z,100372
2018-05-14T13:18:39.433Z,100374
2018-05-14T13:23:44.075Z,100369
2018-05-14T13:28:47.223Z,100368
2018-05-14T13:33:51.082Z,100364
2018-05-14T13:38:55.328Z,100361
2018-05-14T13:43:58.409Z,100362
2018-05-14T13:49:02.109Z,100354
2018-05-14T13:54:05.206Z,100343
2018-05-14T13:59:09.111Z,100327
2018-05-14T14:04:12.245Z,100323
2018-05-14T14:09:15.762Z,100325
2018-05-14T14:14:18.855Z,100315
2018-05-14T14:19:21.957Z,100313
2018-05-14T14:24:25.070Z,100310
2018-05-14T14:29:28.920Z,100301
2018-05-14T14:34:33.155Z,100297
2018-05-14T14:39:36.256Z,100293
2018-05-14T14:44:39.349Z,100287
2018-05-14T14:49:42.845Z,100276
2018-05-14T14:54:47.977Z,100287
2018-05-14T14:59:51.458Z,100280
2018-05-14T15:04:56.051Z,100281
2018-05-14T15:09:59.981Z,100274
2018-05-14T15:15:03.831Z,100276
2018-05-14T15:20:08.111Z,100271
2018-05-14T15:25:11.120Z,100266
2018-05-14T15:30:14.633Z,100271
2018-05-14T15:35:19.149Z,100285
2018-05-14T15:40:22.243Z,100287
2018-05-14T15:45:25.342Z,100285
2018-05-14T15:50:28.835Z,100284
2018-05-14T15:55:32.684Z,100278
2018-05-14T16:00:36.548Z,100274
2018-05-14T16:05:39.635Z,100268
2018-05-14T16:10:42.735Z,100275
2018-05-14T16:15:47.314Z,100273
2018-05-14T16:20:50.523Z,100278
2018-05-14T16:25:53.507Z,100278
2018-05-14T16:30:56.593Z,100281
2018-05-14T16:35:59.971Z,100288
2018-05-14T16:41:03.054Z,100298
2018-05-14T16:46:06.144Z,100294
2018-05-14T16:51:09.237Z,100292
2018-05-14T16:56:12.705Z,100293
2018-05-14T17:01:15.796Z,100297
2018-05-14T17:06:18.889Z,100296
2018-05-14T17:11:21.978Z,100303
2018-05-14T17:16:26.212Z,100304
2018-05-14T17:21:30.093Z,100303
2018-05-14T17:26:35.728Z,100307
2018-05-14T17:31:38.824Z,100311
2018-05-14T17:36:42.666Z,100310
2018-05-14T17:41:45.756Z,100307
2018-05-14T17:46:48.847Z,100314
2018-05-14T17:51:52.784Z,100322
2018-05-14T17:56:56.634Z,100328
2018-05-14T18:02:00.185Z,100335
2018-05-14T18:07:03.678Z,100344
2018-05-14T18:12:07.890Z,100342
2018-05-14T18:17:14.454Z,100345
2018-05-14T18:22:23.579Z,100352
2018-05-14T18:27:31.806Z,100353
2018-05-14T18:32:35.623Z,100354
2018-05-14T18:37:39.106Z,100350
2018-05-14T18:42:42.189Z,100357
2018-05-14T18:47:46.046Z,100366
2018-05-14T18:52:50.510Z,100372
2018-05-14T18:57:55.158Z,100373
2018-05-14T19:02:59.625Z,100381
2018-05-14T19:08:02.715Z,100391
2018-05-14T19:13:05.979Z,100397
2018-05-14T19:18:09.470Z,100403
2018-05-14T19:23:19.268Z,100415
2018-05-14T19:28:28.349Z,100423
2018-05-14T19:33:38.484Z,100429
2018-05-14T19:38:42.707Z,100433
2018-05-14T19:43:46.177Z,100442
2018-05-14T19:48:50.405Z,100444
2018-05-14T19:53:54.656Z,100453
2018-05-14T19:58:59.687Z,100462
2018-05-14T20:04:03.686Z,100465
2018-05-14T20:09:07.152Z,100469
2018-05-14T20:14:11.590Z,100478
2018-05-14T20:19:16.041Z,100489
2018-05-14T20:24:19.890Z,100491
2018-05-14T20:29:23.751Z,100503
2018-05-14T20:34:28.491Z,100503
2018-05-14T20:39:32.365Z,100513
2018-05-14T20:44:36.826Z,100522
2018-05-14T20:49:41.100Z,100521
2018-05-14T20:54:44.945Z,100531
2018-05-14T20:59:48.524Z,100537
2018-05-14T21:04:52.299Z,100541
2018-05-14T21:09:55.397Z,100549
2018-05-14T21:14:58.870Z,100555
2018-05-14T21:20:02.723Z,100560
2018-05-14T21:25:05.809Z,100561
2018-05-14T21:30:08.913Z,100569
2018-05-14T21:35:12.006Z,100578
2018-05-14T21:40:15.082Z,100582
2018-05-14T21:45:19.158Z,100581
2018-05-14T21:50:22.281Z,100581
2018-05-14T21:55:25.334Z,100594
2018-05-14T22:00:29.552Z,100594
2018-05-14T22:05:34.025Z,100596
2018-05-14T22:10:37.105Z,100594
2018-05-14T22:15:40.602Z,100591
2018-05-14T22:20:43.706Z,100592
2018-05-14T22:25:48.349Z,100600
2018-05-14T22:30:52.195Z,100607
2018-05-14T22:35:56.650Z,100605
2018-05-14T22:41:00.142Z,100606
2018-05-14T22:46:03.245Z,100600
2018-05-14T22:51:06.326Z,100607
2018-05-14T22:56:09.451Z,100609
2018-05-14T23:01:13.673Z,100610
2018-05-14T23:06:17.525Z,100614
2018-05-14T23:11:20.628Z,100609
2018-05-14T23:16:25.064Z,100612
2018-05-14T23:21:28.939Z,100608
2018-05-14T23:26:32.014Z,100608
2018-05-14T23:31:35.109Z,100613
2018-05-14T23:36:38.970Z,100617
2018-05-14T23:41:43.202Z,100610
2018-05-14T23:46:47.645Z,100614
2018-05-14T23:51:52.070Z,100615
2018-05-14T23:56:55.925Z,100612
